createdAt,value
2019-04-03T00:01:24.828Z,2.43
2019-04-03T00:04:29.910Z,6.80
2019-04-03T00:07:35.995Z,2.33
2019-04-03T00:10:41.384Z,2.90
2019-04-03T00:13:46.549Z,2.40
2019-04-03T00:16:51.888Z,2.57
2019-04-03T00:19:57.028Z,2.20
2019-04-03T00:23:02.180Z,1.90
2019-04-03T00:26:07.378Z,1.90
2019-04-03T00:29:12.532Z,2.10
2019-04-03T00:32:17.907Z,2.33
2019-04-03T00:35:23.594Z,2.03
2019-04-03T00:38:29.191Z,1.83
2019-04-03T00:41:34.407Z,1.77
2019-04-03T00:44:39.553Z,2.00
2019-04-03T00:47:44.677Z,2.03
2019-04-03T00:50:49.898Z,1.87
2019-04-03T00:53:57.207Z,1.93
2019-04-03T00:57:02.147Z,1.80
2019-04-03T01:00:12.483Z,2.00
2019-04-03T01:03:17.929Z,2.43
2019-04-03T01:06:23.091Z,2.03
2019-04-03T01:09:29.789Z,1.97
2019-04-03T01:12:35.313Z,1.80
2019-04-03T01:15:40.612Z,1.80
2019-04-03T01:18:45.813Z,1.90
2019-04-03T01:21:51.039Z,1.97
2019-04-03T01:24:56.232Z,1.70
2019-04-03T01:28:01.313Z,1.90
2019-04-03T01:31:06.476Z,2.43
2019-04-03T01:34:11.770Z,2.30
2019-04-03T01:37:18.991Z,2.30
2019-04-03T01:40:23.942Z,2.00
2019-04-03T01:43:29.085Z,2.13
2019-04-03T01:46:34.340Z,2.17
2019-04-03T01:49:39.868Z,2.30
2019-04-03T01:52:45.049Z,2.03
2019-04-03T01:55:50.210Z,2.10
2019-04-03T01:58:55.308Z,2.20
2019-04-03T02:02:00.458Z,1.80
2019-04-03T02:05:06.306Z,1.90
2019-04-03T02:08:14.243Z,2.20
2019-04-03T02:11:19.105Z,1.83
2019-04-03T02:14:24.492Z,1.97
2019-04-03T02:17:29.652Z,2.50
2019-04-03T02:20:35.135Z,2.70
2019-04-03T02:23:40.360Z,4.03
2019-04-03T02:26:45.506Z,3.37
2019-04-03T02:29:50.729Z,3.20
2019-04-03T02:32:57.503Z,2.87
2019-04-03T02:36:02.984Z,2.90
2019-04-03T02:39:09.343Z,2.60
2019-04-03T02:42:14.827Z,2.40
2019-04-03T02:45:23.061Z,3.10
2019-04-03T02:48:27.202Z,2.60
2019-04-03T02:51:32.729Z,2.40
2019-04-03T02:54:41.481Z,2.70
2019-04-03T02:57:49.027Z,2.60
2019-04-03T03:00:53.635Z,2.17
2019-04-03T03:03:58.836Z,1.97
2019-04-03T03:07:05.234Z,2.70
2019-04-03T03:10:10.944Z,2.07
2019-04-03T03:13:16.772Z,2.13
2019-04-03T03:16:22.589Z,2.80
2019-04-03T03:19:31.760Z,2.33
2019-04-03T03:22:37.789Z,2.50
2019-04-03T03:25:44.587Z,2.70
2019-04-03T03:28:50.231Z,2.60
2019-04-03T03:32:08.833Z,2.80
2019-04-03T03:35:12.724Z,2.83
2019-04-03T03:38:10.777Z,2.30
2019-04-03T03:41:16.803Z,2.67
2019-04-03T03:44:24.082Z,2.93
2019-04-03T03:47:32.021Z,3.00
2019-04-03T03:50:38.163Z,2.87
2019-04-03T03:53:45.474Z,2.73
2019-04-03T03:56:52.190Z,2.97
2019-04-03T03:59:57.336Z,2.87
2019-04-03T04:03:03.393Z,3.00
2019-04-03T04:06:09.075Z,2.80
2019-04-03T04:09:17.492Z,3.00
2019-04-03T04:12:21.221Z,2.40
2019-04-03T04:15:29.932Z,2.80
2019-04-03T04:18:33.523Z,3.17
2019-04-03T04:21:42.981Z,3.00
2019-04-03T04:24:46.038Z,3.00
2019-04-03T04:27:52.571Z,3.97
2019-04-03T04:30:57.701Z,3.87
2019-04-03T04:34:02.981Z,4.70
2019-04-03T04:37:08.086Z,3.80
2019-04-03T04:40:14.312Z,3.20
2019-04-03T04:43:19.412Z,3.10
2019-04-03T04:46:24.678Z,2.80
2019-04-03T04:49:29.935Z,3.17
2019-04-03T04:52:35.121Z,3.43
2019-04-03T04:55:40.271Z,3.37
2019-04-03T04:58:45.342Z,3.53
2019-04-03T05:01:50.538Z,3.63
2019-04-03T05:04:56.556Z,3.50
2019-04-03T05:08:02.617Z,3.63
2019-04-03T05:11:08.198Z,3.77
2019-04-03T05:14:13.260Z,4.90
2019-04-03T05:17:18.397Z,4.50
2019-04-03T05:20:23.626Z,4.70
2019-04-03T05:23:28.762Z,5.03
2019-04-03T05:26:35.237Z,4.73
2019-04-03T05:29:40.380Z,4.73
2019-04-03T05:32:45.511Z,4.90
2019-04-03T05:35:50.625Z,4.83
2019-04-03T05:38:55.761Z,5.27
2019-04-03T05:42:01.111Z,5.23
2019-04-03T05:45:06.859Z,5.37
2019-04-03T05:48:13.543Z,5.80
2019-04-03T05:51:19.105Z,5.43
2019-04-03T05:54:24.385Z,6.17
2019-04-03T05:57:30.721Z,6.17
2019-04-03T06:00:37.518Z,7.03
2019-04-03T06:03:45.620Z,6.17
2019-04-03T06:06:49.659Z,6.73
2019-04-03T06:09:58.277Z,5.57
2019-04-03T06:13:01.625Z,5.83
2019-04-03T06:16:07.023Z,6.37
2019-04-03T06:19:12.375Z,5.70
2019-04-03T06:22:21.072Z,5.23
2019-04-03T06:25:24.283Z,5.80
2019-04-03T06:28:29.401Z,5.60
2019-04-03T06:31:34.528Z,5.27
2019-04-03T06:34:42.446Z,5.03
2019-04-03T06:37:47.634Z,5.30
2019-04-03T06:40:52.931Z,5.60
2019-04-03T06:43:58.183Z,5.67
2019-04-03T06:47:03.374Z,5.90
2019-04-03T06:50:08.708Z,5.77
2019-04-03T06:53:13.970Z,5.33
2019-04-03T06:56:19.281Z,6.07
2019-04-03T06:59:24.420Z,5.63
2019-04-03T07:02:32.027Z,4.90
2019-04-03T07:05:36.525Z,5.47
2019-04-03T07:08:41.692Z,5.57
2019-04-03T07:11:46.872Z,5.87
2019-04-03T07:14:52.166Z,5.70
2019-04-03T07:17:57.355Z,5.80
2019-04-03T07:21:02.667Z,6.43
2019-04-03T07:24:08.878Z,5.60
2019-04-03T07:27:15.147Z,5.47
2019-04-03T07:30:21.747Z,6.43
2019-04-03T07:33:28.647Z,5.90
2019-04-03T07:36:34.543Z,6.27
2019-04-03T07:39:39.627Z,6.27
2019-04-03T07:42:44.769Z,6.40
2019-04-03T07:45:50.057Z,6.60
2019-04-03T07:48:55.245Z,6.40
2019-04-03T07:52:00.506Z,7.07
2019-04-03T07:55:06.494Z,6.70
2019-04-03T07:58:11.605Z,8.90
2019-04-03T08:01:18.769Z,7.53
2019-04-03T08:04:25.242Z,7.13
2019-04-03T08:07:32.695Z,6.93
2019-04-03T08:10:38.913Z,6.80
2019-04-03T08:13:44.112Z,5.80
2019-04-03T08:16:49.302Z,6.30
2019-04-03T08:19:55.259Z,6.43
2019-04-03T08:23:00.443Z,7.00
2019-04-03T08:26:05.578Z,7.00
2019-04-03T08:29:12.072Z,6.93
2019-04-03T08:32:17.382Z,6.43
2019-04-03T08:35:23.735Z,6.37
2019-04-03T08:38:29.643Z,5.90
2019-04-03T08:41:36.919Z,6.10
2019-04-03T08:44:41.682Z,6.60
2019-04-03T08:47:46.974Z,5.80
2019-04-03T08:50:52.231Z,6.50
2019-04-03T08:53:57.420Z,5.93
2019-04-03T08:57:02.633Z,6.10
2019-04-03T09:00:08.807Z,6.23
2019-04-03T09:03:14.561Z,5.80
2019-04-03T09:06:22.157Z,6.03
2019-04-03T09:09:29.911Z,5.57
2019-04-03T09:12:34.242Z,5.17
2019-04-03T09:15:39.607Z,5.30
2019-04-03T09:18:44.733Z,5.10
2019-04-03T09:21:51.114Z,5.93
2019-04-03T09:24:56.726Z,5.43
2019-04-03T09:28:01.873Z,4.90
2019-04-03T09:31:06.965Z,5.57
2019-04-03T09:34:12.221Z,5.77
2019-04-03T09:37:18.341Z,5.53
2019-04-03T09:40:23.770Z,5.30
2019-04-03T09:43:28.948Z,7.57
2019-04-03T09:46:34.085Z,5.90
2019-04-03T09:49:42.268Z,4.80
2019-04-03T09:52:49.451Z,5.20
2019-04-03T09:55:52.885Z,4.60
2019-04-03T09:58:58.133Z,5.10
2019-04-03T10:02:03.496Z,5.20
2019-04-03T10:05:09.098Z,4.77
2019-04-03T10:08:14.277Z,4.80
2019-04-03T10:11:20.796Z,5.63
2019-04-03T10:14:28.139Z,6.47
2019-04-03T10:17:33.067Z,5.10
2019-04-03T10:20:38.366Z,4.70
2019-04-03T10:23:43.580Z,4.93
2019-04-03T10:26:48.718Z,4.67
2019-04-03T10:29:55.803Z,4.47
2019-04-03T10:33:01.056Z,4.90
2019-04-03T10:36:06.915Z,4.67
2019-04-03T10:39:14.501Z,4.80
2019-04-03T10:42:19.644Z,5.90
2019-04-03T10:45:25.140Z,6.33
2019-04-03T10:48:30.358Z,5.07
2019-04-03T10:51:35.582Z,4.90
2019-04-03T10:54:40.886Z,4.30
2019-04-03T10:57:46.098Z,4.67
2019-04-03T11:00:51.385Z,4.27
2019-04-03T11:03:56.584Z,3.93
2019-04-03T11:07:01.743Z,3.77
2019-04-03T11:10:08.687Z,3.53
2019-04-03T11:13:13.983Z,3.33
2019-04-03T11:16:19.167Z,2.80
2019-04-03T11:19:24.387Z,2.67
2019-04-03T11:22:41.048Z,2.33
2019-04-03T11:25:40.927Z,2.43
2019-04-03T11:28:44.788Z,2.47
2019-04-03T11:31:50.012Z,2.33
2019-04-03T11:34:55.319Z,2.43
2019-04-03T11:38:12.064Z,1.80
2019-04-03T11:41:14.530Z,1.93
2019-04-03T11:44:14.427Z,2.00
2019-04-03T11:47:20.271Z,2.43
2019-04-03T11:50:25.877Z,2.37
2019-04-03T11:53:30.976Z,2.20
2019-04-03T11:56:36.231Z,2.00
2019-04-03T11:59:41.414Z,2.60
2019-04-03T12:02:46.591Z,2.50
2019-04-03T12:05:51.925Z,2.77
2019-04-03T12:08:59.318Z,2.17
2019-04-03T12:12:04.538Z,2.13
2019-04-03T12:15:11.119Z,2.20
2019-04-03T12:18:16.360Z,2.17
2019-04-03T12:21:21.557Z,2.30
2019-04-03T12:24:26.783Z,2.13
2019-04-03T12:27:32.122Z,2.20
2019-04-03T12:30:37.285Z,2.30
2019-04-03T12:33:51.999Z,2.37
2019-04-03T12:36:49.450Z,2.27
2019-04-03T12:39:54.701Z,2.43
2019-04-03T12:43:00.045Z,2.50
2019-04-03T12:46:05.330Z,2.80
2019-04-03T12:49:10.719Z,2.47
2019-04-03T12:52:16.338Z,2.43
2019-04-03T12:55:22.963Z,2.20
2019-04-03T12:58:28.368Z,2.33
2019-04-03T13:01:33.623Z,2.13
2019-04-03T13:04:38.803Z,2.30
2019-04-03T13:07:45.959Z,2.20
2019-04-03T13:10:51.250Z,2.40
2019-04-03T13:13:57.273Z,2.10
2019-04-03T13:17:03.837Z,2.37
2019-04-03T13:20:10.226Z,2.60
2019-04-03T13:23:16.601Z,2.23
2019-04-03T13:26:24.082Z,2.30
2019-04-03T13:29:28.710Z,2.23
2019-04-03T13:32:34.024Z,2.27
2019-04-03T13:35:39.217Z,2.60
2019-04-03T13:38:44.466Z,2.23
2019-04-03T13:41:49.683Z,2.47
2019-04-03T13:44:57.963Z,3.13
2019-04-03T13:48:02.186Z,4.17
2019-04-03T13:51:07.372Z,3.50
2019-04-03T13:54:12.704Z,2.67
2019-04-03T13:57:18.288Z,2.50
2019-04-03T14:00:24.852Z,2.70
2019-04-03T14:03:30.247Z,2.40
2019-04-03T14:06:36.290Z,2.20
2019-04-03T14:09:42.302Z,2.20
2019-04-03T14:12:47.496Z,2.10
2019-04-03T14:15:54.747Z,2.23
2019-04-03T14:18:59.869Z,2.47
2019-04-03T14:22:05.554Z,2.50
2019-04-03T14:25:19.945Z,2.70
2019-04-03T14:28:17.891Z,2.67
2019-04-03T14:31:33.365Z,2.80
2019-04-03T14:34:30.673Z,2.90
2019-04-03T14:37:36.424Z,2.37
2019-04-03T14:40:43.494Z,3.00
2019-04-03T14:43:48.556Z,2.73
2019-04-03T14:46:53.786Z,2.60
2019-04-03T14:49:59.151Z,2.60
2019-04-03T14:53:04.777Z,2.37
2019-04-03T14:56:10.549Z,2.33
2019-04-03T14:59:15.867Z,2.33
2019-04-03T15:02:23.669Z,2.10
2019-04-03T15:05:28.077Z,2.00
2019-04-03T15:08:33.669Z,2.40
2019-04-03T15:11:39.265Z,2.47
2019-04-03T15:14:44.387Z,2.40
2019-04-03T15:17:49.856Z,2.30
2019-04-03T15:20:55.004Z,2.03
2019-04-03T15:24:00.211Z,2.10
2019-04-03T15:27:06.671Z,2.17
2019-04-03T15:30:12.722Z,2.00
2019-04-03T15:33:18.376Z,2.43
2019-04-03T15:36:24.034Z,2.30
2019-04-03T15:39:29.244Z,2.10
2019-04-03T15:42:34.713Z,2.43
2019-04-03T15:45:40.062Z,2.10
2019-04-03T15:48:45.511Z,1.97
2019-04-03T15:51:50.780Z,1.90
2019-04-03T15:54:55.959Z,2.17
2019-04-03T15:58:01.193Z,2.10
2019-04-03T16:01:08.442Z,1.90
2019-04-03T16:04:13.918Z,2.20
2019-04-03T16:07:19.419Z,1.80
2019-04-03T16:10:25.144Z,2.10
2019-04-03T16:13:30.675Z,2.20
2019-04-03T16:16:36.006Z,2.10
2019-04-03T16:19:43.359Z,2.00
2019-04-03T16:22:48.287Z,1.90
2019-04-03T16:25:53.495Z,2.20
2019-04-03T16:28:58.737Z,2.20
2019-04-03T16:32:04.098Z,2.50
2019-04-03T16:35:12.697Z,2.20
2019-04-03T16:38:16.322Z,2.40
2019-04-03T16:41:21.542Z,2.73
2019-04-03T16:44:27.463Z,2.67
2019-04-03T16:47:32.815Z,2.57
2019-04-03T16:50:38.081Z,2.43
2019-04-03T16:53:43.552Z,2.60
2019-04-03T16:56:50.036Z,3.00
2019-04-03T16:59:55.446Z,4.20
2019-04-03T17:03:06.043Z,4.03
2019-04-03T17:06:16.293Z,2.50
2019-04-03T17:09:20.754Z,2.20
2019-04-03T17:12:26.024Z,1.73
2019-04-03T17:15:32.235Z,1.77
2019-04-03T17:18:38.204Z,1.40
2019-04-03T17:21:44.467Z,2.30
2019-04-03T17:24:53.977Z,1.80
2019-04-03T17:27:58.802Z,2.00
2019-04-03T17:31:04.493Z,1.60
2019-04-03T17:34:09.944Z,2.20
2019-04-03T17:37:15.248Z,2.00
2019-04-03T17:40:20.393Z,2.30
2019-04-03T17:43:25.525Z,2.53
2019-04-03T17:46:30.715Z,3.10
2019-04-03T17:49:35.987Z,2.63
2019-04-03T17:52:41.364Z,2.47
2019-04-03T17:55:46.482Z,2.03
2019-04-03T17:58:51.644Z,2.00
2019-04-03T18:01:56.868Z,1.70
2019-04-03T18:05:02.203Z,2.00
2019-04-03T18:08:07.378Z,2.00
2019-04-03T18:11:13.312Z,2.27
2019-04-03T18:14:19.066Z,2.47
2019-04-03T18:17:24.325Z,2.60
2019-04-03T18:20:29.534Z,2.90
2019-04-03T18:23:34.788Z,3.07
2019-04-03T18:26:40.018Z,3.00
2019-04-03T18:29:45.270Z,3.70
2019-04-03T18:32:50.432Z,2.90
2019-04-03T18:35:56.817Z,3.80
2019-04-03T18:39:02.362Z,2.97
2019-04-03T18:42:08.889Z,5.50
2019-04-03T18:45:24.556Z,3.63
2019-04-03T18:48:21.521Z,3.13
2019-04-03T18:51:26.795Z,2.93
2019-04-03T18:54:32.012Z,2.23
2019-04-03T18:57:37.207Z,3.10
2019-04-03T19:00:42.403Z,3.53
2019-04-03T19:03:47.682Z,2.13
2019-04-03T19:06:52.821Z,2.37
2019-04-03T19:10:06.945Z,2.07
2019-04-03T19:13:05.235Z,1.60
2019-04-03T19:16:10.578Z,1.60
2019-04-03T19:19:16.523Z,1.47
2019-04-03T19:22:21.934Z,1.37
2019-04-03T19:25:29.408Z,1.60
2019-04-03T19:28:34.623Z,1.50
2019-04-03T19:31:40.790Z,2.63
2019-04-03T19:34:46.209Z,1.60
2019-04-03T19:37:51.413Z,1.70
2019-04-03T19:40:56.677Z,2.00
2019-04-03T19:44:02.071Z,1.97
2019-04-03T19:47:08.379Z,1.47
2019-04-03T19:50:13.579Z,1.37
2019-04-03T19:53:19.661Z,1.83
2019-04-03T19:56:25.945Z,1.30
2019-04-03T19:59:34.610Z,1.40
2019-04-03T20:02:42.726Z,2.17
2019-04-03T20:05:50.091Z,1.40
2019-04-03T20:08:53.634Z,1.20
2019-04-03T20:11:58.892Z,1.20
2019-04-03T20:15:04.184Z,1.10
2019-04-03T20:18:09.445Z,1.00
2019-04-03T20:21:15.270Z,1.07
2019-04-03T20:24:20.582Z,1.20
2019-04-03T20:27:25.800Z,1.37
2019-04-03T20:30:32.819Z,1.13
2019-04-03T20:33:37.879Z,1.23
2019-04-03T20:36:43.085Z,1.40
2019-04-03T20:39:48.298Z,1.43
2019-04-03T20:42:53.580Z,1.80
2019-04-03T20:45:58.741Z,1.63
2019-04-03T20:49:03.915Z,1.53
2019-04-03T20:52:11.473Z,1.40
2019-04-03T20:55:16.108Z,1.40
2019-04-03T20:58:21.315Z,1.67
2019-04-03T21:01:26.492Z,1.10
2019-04-03T21:04:31.770Z,1.27
2019-04-03T21:07:37.205Z,1.40
2019-04-03T21:10:42.511Z,1.60
2019-04-03T21:13:47.671Z,1.53
2019-04-03T21:16:52.756Z,1.50
2019-04-03T21:19:57.994Z,1.50
2019-04-03T21:23:03.826Z,1.30
2019-04-03T21:26:09.183Z,1.60
2019-04-03T21:29:16.609Z,1.57
2019-04-03T21:32:21.319Z,1.60
2019-04-03T21:35:26.588Z,1.60
2019-04-03T21:38:31.750Z,1.33
2019-04-03T21:41:36.951Z,1.40
2019-04-03T21:44:42.247Z,1.40
2019-04-03T21:47:47.429Z,1.50
2019-04-03T21:50:53.730Z,1.20
2019-04-03T21:53:58.972Z,1.40
2019-04-03T21:57:06.276Z,1.20
2019-04-03T22:00:14.619Z,1.27
2019-04-03T22:03:21.443Z,1.60
2019-04-03T22:06:27.733Z,1.50
2019-04-03T22:09:33.157Z,1.27
2019-04-03T22:12:38.393Z,1.53
2019-04-03T22:15:45.617Z,1.50
2019-04-03T22:18:51.009Z,1.53
2019-04-03T22:21:57.351Z,1.63
2019-04-03T22:25:02.631Z,1.50
2019-04-03T22:28:07.837Z,1.37
2019-04-03T22:31:12.920Z,1.50
2019-04-03T22:34:18.142Z,2.43
2019-04-03T22:37:23.367Z,3.13
2019-04-03T22:40:28.583Z,3.20
2019-04-03T22:43:33.766Z,1.53
2019-04-03T22:46:38.898Z,1.40
2019-04-03T22:49:44.112Z,1.50
2019-04-03T22:52:49.360Z,1.10
2019-04-03T22:55:54.523Z,1.13
2019-04-03T22:58:59.708Z,1.50
2019-04-03T23:02:04.875Z,1.47
2019-04-03T23:05:10.125Z,1.57
2019-04-03T23:08:15.242Z,1.27
2019-04-03T23:11:20.582Z,1.90
2019-04-03T23:14:25.825Z,1.67
2019-04-03T23:17:31.106Z,1.50
2019-04-03T23:20:36.387Z,1.87
2019-04-03T23:23:41.654Z,1.50
2019-04-03T23:26:46.878Z,1.40
2019-04-03T23:29:52.170Z,1.60
2019-04-03T23:32:57.568Z,1.60
2019-04-03T23:36:02.790Z,1.80
2019-04-03T23:39:09.319Z,2.53
2019-04-03T23:42:14.578Z,2.90
2019-04-03T23:45:20.535Z,3.10
2019-04-03T23:48:25.772Z,2.50
2019-04-03T23:51:30.918Z,3.13
2019-04-03T23:54:36.195Z,2.73
2019-04-03T23:57:41.384Z,2.93
